createdAt,value
2018-06-30T00:00:49.339Z,94.41
2018-06-30T00:03:18.710Z,94.73
2018-06-30T00:05:48.405Z,95.39
2018-06-30T00:08:17.816Z,95.09
2018-06-30T00:10:47.267Z,95.42
2018-06-30T00:13:16.653Z,95.11
2018-06-30T00:15:45.671Z,95.89
2018-06-30T00:18:14.751Z,95.17
2018-06-30T00:20:44.295Z,94.66
2018-06-30T00:23:13.296Z,94.47
2018-06-30T00:25:42.310Z,94.20
2018-06-30T00:28:11.620Z,93.41
2018-06-30T00:30:40.667Z,93.60
2018-06-30T00:33:09.699Z,93.33
2018-06-30T00:35:38.837Z,92.62
2018-06-30T00:38:07.880Z,91.60
2018-06-30T00:40:36.919Z,91.45
2018-06-30T00:43:06.449Z,90.79
2018-06-30T00:45:35.706Z,91.06
2018-06-30T00:48:04.569Z,91.52
2018-06-30T00:50:33.637Z,89.92
2018-06-30T00:53:03.270Z,89.50
2018-06-30T00:55:32.586Z,90.36
2018-06-30T00:58:01.976Z,89.96
2018-06-30T01:00:30.958Z,89.32
2018-06-30T01:03:00.337Z,90.20
2018-06-30T01:05:29.386Z,89.87
2018-06-30T01:07:58.480Z,90.39
2018-06-30T01:10:27.513Z,90.74
2018-06-30T01:12:56.608Z,91.07
2018-06-30T01:16:54.910Z,91.31
2018-06-30T01:19:24.410Z,90.62
2018-06-30T01:21:53.427Z,90.17
2018-06-30T01:24:22.478Z,89.55
2018-06-30T01:26:51.631Z,90.16
2018-06-30T01:29:21.710Z,89.95
2018-06-30T01:31:50.757Z,89.43
2018-06-30T01:34:19.957Z,88.89
2018-06-30T01:36:48.875Z,89.91
2018-06-30T01:39:17.819Z,89.59
2018-06-30T01:41:46.995Z,89.31
2018-06-30T01:44:15.948Z,89.49
2018-06-30T01:46:44.798Z,89.93
2018-06-30T01:49:13.975Z,89.68
2018-06-30T01:51:43.095Z,89.17
2018-06-30T01:54:12.293Z,88.97
2018-06-30T01:56:41.629Z,89.60
2018-06-30T01:59:10.671Z,89.10
2018-06-30T02:01:40.759Z,89.50
2018-06-30T02:04:09.931Z,89.49
2018-06-30T02:06:39.193Z,89.97
2018-06-30T02:09:10.075Z,89.98
2018-06-30T02:11:39.911Z,90.27
2018-06-30T02:14:09.884Z,89.59
2018-06-30T02:16:39.259Z,89.91
2018-06-30T02:19:08.538Z,89.62
2018-06-30T02:21:37.825Z,89.72
2018-06-30T02:24:06.951Z,89.04
2018-06-30T02:26:37.026Z,89.81
2018-06-30T02:29:06.594Z,89.72
2018-06-30T02:31:35.936Z,89.93
2018-06-30T02:34:05.207Z,90.11
2018-06-30T02:36:34.678Z,90.43
2018-06-30T02:39:04.017Z,90.85
2018-06-30T02:41:33.144Z,90.79
2018-06-30T02:44:02.782Z,91.52
2018-06-30T02:46:31.774Z,93.05
2018-06-30T02:49:00.763Z,95.27
2018-06-30T02:51:29.804Z,99.32
2018-06-30T02:53:58.950Z,100.00
2018-06-30T02:56:28.144Z,100.00
2018-06-30T02:58:57.401Z,100.00
2018-06-30T03:01:26.614Z,100.00
2018-06-30T03:03:55.751Z,100.00
2018-06-30T03:06:25.423Z,100.00
2018-06-30T03:08:54.535Z,100.00
2018-06-30T03:11:23.551Z,100.00
2018-06-30T03:13:52.861Z,100.00
2018-06-30T03:16:21.937Z,100.00
2018-06-30T03:18:51.144Z,100.00
2018-06-30T03:21:20.390Z,100.00
2018-06-30T03:23:49.435Z,100.00
2018-06-30T03:26:18.748Z,100.00
2018-06-30T03:28:48.095Z,100.00
2018-06-30T03:31:17.129Z,100.00
2018-06-30T03:33:46.166Z,100.00
2018-06-30T03:36:15.412Z,100.00
2018-06-30T03:38:44.548Z,100.00
2018-06-30T03:41:13.620Z,100.00
2018-06-30T03:43:42.795Z,100.00
2018-06-30T03:46:11.865Z,100.00
2018-06-30T03:48:40.953Z,100.00
2018-06-30T03:51:10.114Z,100.00
2018-06-30T03:53:39.081Z,100.00
2018-06-30T03:56:08.300Z,100.00
2018-06-30T03:58:37.783Z,100.00
2018-06-30T04:01:06.963Z,100.00
2018-06-30T04:03:36.045Z,100.00
2018-06-30T04:06:05.143Z,100.00
2018-06-30T04:08:34.379Z,100.00
2018-06-30T04:11:03.406Z,100.00
2018-06-30T04:13:33.001Z,100.00
2018-06-30T04:16:02.255Z,100.00
2018-06-30T04:18:31.199Z,100.00
2018-06-30T04:21:00.361Z,100.00
2018-06-30T04:23:29.360Z,100.00
2018-06-30T04:25:58.370Z,100.00
2018-06-30T04:28:27.485Z,100.00
2018-06-30T04:30:56.510Z,100.00
2018-06-30T04:33:25.654Z,100.00
2018-06-30T04:35:54.790Z,100.00
2018-06-30T04:38:23.725Z,100.00
2018-06-30T04:40:52.858Z,100.00
2018-06-30T04:43:22.002Z,100.00
2018-06-30T04:45:51.067Z,100.00
2018-06-30T04:48:20.160Z,100.00
2018-06-30T04:50:49.231Z,100.00
2018-06-30T04:53:18.177Z,100.00
2018-06-30T04:55:47.232Z,100.00
2018-06-30T04:58:16.317Z,100.00
2018-06-30T05:00:45.466Z,100.00
2018-06-30T05:03:14.460Z,100.00
2018-06-30T05:05:44.107Z,100.00
2018-06-30T05:08:12.975Z,100.00
2018-06-30T05:10:42.141Z,98.46
2018-06-30T05:13:11.282Z,94.53
2018-06-30T05:15:40.406Z,90.20
2018-06-30T05:18:09.636Z,86.75
2018-06-30T05:20:38.715Z,82.95
2018-06-30T05:23:07.868Z,76.02
2018-06-30T05:25:37.037Z,75.71
2018-06-30T05:28:06.090Z,74.00
2018-06-30T05:30:35.162Z,73.89
2018-06-30T05:33:04.504Z,76.21
2018-06-30T05:35:33.537Z,78.00
2018-06-30T05:38:02.687Z,78.55
2018-06-30T05:40:32.134Z,79.00
2018-06-30T05:43:01.254Z,77.50
2018-06-30T05:45:30.311Z,76.59
2018-06-30T05:47:59.553Z,74.50
2018-06-30T05:50:28.707Z,74.03
2018-06-30T05:52:57.760Z,72.68
2018-06-30T05:55:27.044Z,70.89
2018-06-30T05:57:56.131Z,71.08
2018-06-30T06:00:25.478Z,72.82
2018-06-30T06:02:54.837Z,72.93
2018-06-30T06:05:24.095Z,71.78
2018-06-30T06:07:53.391Z,72.24
2018-06-30T06:10:22.981Z,71.36
2018-06-30T06:12:52.079Z,71.56
2018-06-30T06:15:21.176Z,72.60
2018-06-30T06:17:50.272Z,69.36
2018-06-30T06:20:19.513Z,69.29
2018-06-30T06:22:48.634Z,70.04
2018-06-30T06:25:17.879Z,70.51
2018-06-30T06:27:47.139Z,69.54
2018-06-30T06:30:16.384Z,68.67
2018-06-30T06:32:46.107Z,68.72
2018-06-30T06:35:15.169Z,68.33
2018-06-30T06:37:44.239Z,67.67
2018-06-30T06:40:13.387Z,67.27
2018-06-30T06:42:43.564Z,68.09
2018-06-30T06:45:13.031Z,67.36
2018-06-30T06:47:42.273Z,66.32
2018-06-30T06:50:11.428Z,65.87
2018-06-30T06:52:40.862Z,64.55
2018-06-30T06:55:10.203Z,65.42
2018-06-30T06:57:41.571Z,64.41
2018-06-30T07:00:10.808Z,64.51
2018-06-30T07:02:40.035Z,65.89
2018-06-30T07:05:09.300Z,65.93
2018-06-30T07:07:38.537Z,67.06
2018-06-30T07:10:07.757Z,69.05
2018-06-30T07:12:37.191Z,67.56
2018-06-30T07:15:06.559Z,68.00
2018-06-30T07:17:35.892Z,67.41
2018-06-30T07:20:05.527Z,68.57
2018-06-30T07:22:34.838Z,68.85
2018-06-30T07:25:04.228Z,66.99
2018-06-30T07:27:33.675Z,66.91
2018-06-30T07:30:04.099Z,66.95
2018-06-30T07:32:33.502Z,67.57
2018-06-30T07:35:05.361Z,66.92
2018-06-30T07:37:34.735Z,66.11
2018-06-30T07:40:04.124Z,64.27
2018-06-30T07:42:33.501Z,65.11
2018-06-30T07:45:02.843Z,64.68
2018-06-30T07:47:32.146Z,64.99
2018-06-30T07:50:01.466Z,66.34
2018-06-30T07:52:30.873Z,65.06
2018-06-30T07:55:00.171Z,65.26
2018-06-30T07:57:29.533Z,64.15
2018-06-30T07:59:58.781Z,65.27
2018-06-30T08:02:28.256Z,65.28
2018-06-30T08:04:57.622Z,65.18
2018-06-30T08:07:26.967Z,66.89
2018-06-30T08:09:56.391Z,68.32
2018-06-30T08:12:25.680Z,68.44
2018-06-30T08:15:00.105Z,70.28
2018-06-30T08:17:39.112Z,69.55
2018-06-30T08:21:31.773Z,69.01
2018-06-30T08:24:01.304Z,68.61
2018-06-30T08:26:33.891Z,68.08
2018-06-30T08:29:03.452Z,67.04
2018-06-30T08:31:34.093Z,65.10
2018-06-30T08:34:03.462Z,63.63
2018-06-30T08:36:32.785Z,64.08
2018-06-30T08:39:02.136Z,62.52
2018-06-30T08:41:31.420Z,61.97
2018-06-30T08:44:00.823Z,60.15
2018-06-30T08:46:31.249Z,59.78
2018-06-30T08:49:00.510Z,59.36
2018-06-30T08:51:29.980Z,61.21
2018-06-30T08:53:59.572Z,61.03
2018-06-30T08:56:29.138Z,62.38
2018-06-30T08:58:58.593Z,61.17
2018-06-30T09:01:28.161Z,59.57
2018-06-30T09:03:57.598Z,59.23
2018-06-30T09:06:27.168Z,58.33
2018-06-30T09:08:57.601Z,59.22
2018-06-30T09:11:28.911Z,58.49
2018-06-30T09:13:58.214Z,59.02
2018-06-30T09:16:27.524Z,61.10
2018-06-30T09:18:56.742Z,60.72
2018-06-30T09:21:26.199Z,62.64
2018-06-30T09:23:55.594Z,64.44
2018-06-30T09:26:24.845Z,66.58
2018-06-30T09:28:54.202Z,67.60
2018-06-30T09:31:24.477Z,69.81
2018-06-30T09:33:53.799Z,69.72
2018-06-30T09:36:22.979Z,72.65
2018-06-30T09:38:52.291Z,74.10
2018-06-30T09:41:21.743Z,74.22
2018-06-30T09:43:50.992Z,77.47
2018-06-30T09:46:20.251Z,81.51
2018-06-30T09:48:49.621Z,81.19
2018-06-30T09:51:18.902Z,82.70
2018-06-30T09:53:49.235Z,83.23
2018-06-30T09:56:18.554Z,83.66
2018-06-30T09:58:47.843Z,83.94
2018-06-30T10:01:17.146Z,82.19
2018-06-30T10:03:46.634Z,80.99
2018-06-30T10:06:15.903Z,80.72
2018-06-30T10:08:45.100Z,78.15
2018-06-30T10:11:14.429Z,75.60
2018-06-30T10:13:43.657Z,74.11
2018-06-30T10:16:13.310Z,73.30
2018-06-30T10:18:58.283Z,71.36
2018-06-30T10:21:27.782Z,67.14
2018-06-30T10:23:57.131Z,67.10
2018-06-30T10:26:26.508Z,67.44
2018-06-30T10:28:56.145Z,68.35
2018-06-30T10:31:25.443Z,67.33
2018-06-30T10:33:54.758Z,64.70
2018-06-30T10:36:24.128Z,64.00
2018-06-30T10:38:53.562Z,61.63
2018-06-30T10:41:22.802Z,61.43
2018-06-30T10:43:52.325Z,61.34
2018-06-30T10:46:23.647Z,58.85
2018-06-30T10:48:53.177Z,61.11
2018-06-30T10:51:23.532Z,60.09
2018-06-30T10:53:55.285Z,59.46
2018-06-30T10:56:25.657Z,58.86
2018-06-30T10:58:54.978Z,59.91
2018-06-30T11:01:24.374Z,61.31
2018-06-30T11:03:53.724Z,60.38
2018-06-30T11:06:23.215Z,61.65
2018-06-30T11:08:52.476Z,59.97
2018-06-30T11:11:21.806Z,60.51
2018-06-30T11:13:51.162Z,61.44
2018-06-30T11:16:21.392Z,62.06
2018-06-30T11:18:50.691Z,62.32
2018-06-30T11:21:20.185Z,62.13
2018-06-30T11:23:49.548Z,61.42
2018-06-30T11:26:18.751Z,60.76
2018-06-30T11:28:48.119Z,62.15
2018-06-30T11:31:17.371Z,62.30
2018-06-30T11:33:46.672Z,62.50
2018-06-30T11:36:16.625Z,61.69
2018-06-30T11:38:45.893Z,60.16
2018-06-30T11:41:15.165Z,60.19
2018-06-30T11:43:44.765Z,59.48
2018-06-30T11:46:14.026Z,59.52
2018-06-30T11:48:43.325Z,58.43
2018-06-30T11:51:12.874Z,58.76
2018-06-30T11:53:42.789Z,57.64
2018-06-30T11:56:12.250Z,57.70
2018-06-30T11:58:41.967Z,56.77
2018-06-30T12:01:11.306Z,57.08
2018-06-30T12:03:41.076Z,57.37
2018-06-30T12:06:10.931Z,56.56
2018-06-30T12:08:40.331Z,56.85
2018-06-30T12:11:09.657Z,57.76
2018-06-30T12:13:39.395Z,57.53
2018-06-30T12:16:09.752Z,57.23
2018-06-30T12:18:40.743Z,56.77
2018-06-30T12:21:10.197Z,56.64
2018-06-30T12:23:41.510Z,53.91
2018-06-30T12:26:10.520Z,53.54
2018-06-30T12:28:39.928Z,55.69
2018-06-30T12:31:09.545Z,54.55
2018-06-30T12:33:38.883Z,54.46
2018-06-30T12:36:08.128Z,52.94
2018-06-30T12:38:37.646Z,54.14
2018-06-30T12:41:07.258Z,53.83
2018-06-30T12:43:36.686Z,52.84
2018-06-30T12:46:06.603Z,52.52
2018-06-30T12:48:35.924Z,51.96
2018-06-30T12:51:05.188Z,51.88
2018-06-30T12:53:34.573Z,52.37
2018-06-30T12:56:04.584Z,51.92
2018-06-30T12:58:33.907Z,52.69
2018-06-30T13:01:03.600Z,51.29
2018-06-30T13:03:32.877Z,51.99
2018-06-30T13:06:02.204Z,51.09
2018-06-30T13:08:31.508Z,51.54
2018-06-30T13:11:00.861Z,50.54
2018-06-30T13:13:30.316Z,50.63
2018-06-30T13:15:59.647Z,50.35
2018-06-30T13:18:29.072Z,50.60
2018-06-30T13:20:58.424Z,51.65
2018-06-30T13:23:28.372Z,51.38
2018-06-30T13:25:57.823Z,50.56
2018-06-30T13:28:29.827Z,52.75
2018-06-30T13:30:59.293Z,50.86
2018-06-30T13:33:30.623Z,50.88
2018-06-30T13:36:00.320Z,51.01
2018-06-30T13:38:29.686Z,50.20
2018-06-30T13:40:59.460Z,50.85
2018-06-30T13:43:28.905Z,50.00
2018-06-30T13:45:58.335Z,50.22
2018-06-30T13:48:27.856Z,50.82
2018-06-30T13:50:57.175Z,51.39
2018-06-30T13:53:26.639Z,49.62
2018-06-30T13:55:55.844Z,50.93
2018-06-30T13:58:25.292Z,50.76
2018-06-30T14:00:54.980Z,50.26
2018-06-30T14:03:24.592Z,50.10
2018-06-30T14:05:54.048Z,50.37
2018-06-30T14:08:23.181Z,49.46
2018-06-30T14:10:52.504Z,50.11
2018-06-30T14:13:21.567Z,50.57
2018-06-30T14:15:51.583Z,50.84
2018-06-30T14:18:20.903Z,50.73
2018-06-30T14:20:50.016Z,50.54
2018-06-30T14:23:19.262Z,50.23
2018-06-30T14:25:48.545Z,50.50
2018-06-30T14:28:17.651Z,51.82
2018-06-30T14:30:46.955Z,51.35
2018-06-30T14:33:16.452Z,50.74
2018-06-30T14:35:46.372Z,49.91
2018-06-30T14:38:15.563Z,51.44
2018-06-30T14:40:45.076Z,51.12
2018-06-30T14:43:14.239Z,50.99
2018-06-30T14:45:43.309Z,52.20
2018-06-30T14:48:13.250Z,50.68
2018-06-30T14:50:42.163Z,51.92
2018-06-30T14:53:14.858Z,52.04
2018-06-30T14:55:43.895Z,51.38
2018-06-30T14:58:12.923Z,51.45
2018-06-30T15:00:42.318Z,51.18
2018-06-30T15:03:11.281Z,52.24
2018-06-30T15:05:40.281Z,53.95
2018-06-30T15:08:09.464Z,53.32
2018-06-30T15:10:38.707Z,53.80
2018-06-30T15:13:08.922Z,53.98
2018-06-30T15:15:38.150Z,52.80
2018-06-30T15:18:10.876Z,53.86
2018-06-30T15:20:40.167Z,55.72
2018-06-30T15:23:09.246Z,55.03
2018-06-30T15:25:38.396Z,54.31
2018-06-30T15:28:07.493Z,54.41
2018-06-30T15:30:36.552Z,55.02
2018-06-30T15:33:06.857Z,55.48
2018-06-30T15:35:36.048Z,55.30
2018-06-30T15:38:05.553Z,56.58
2018-06-30T15:40:34.542Z,57.68
2018-06-30T15:43:03.770Z,55.48
2018-06-30T15:45:33.343Z,56.79
2018-06-30T15:48:02.326Z,56.81
2018-06-30T15:50:31.230Z,56.54
2018-06-30T15:53:00.480Z,57.84
2018-06-30T15:55:29.651Z,59.61
2018-06-30T15:57:58.601Z,60.76
2018-06-30T16:00:27.773Z,60.56
2018-06-30T16:02:56.936Z,61.18
2018-06-30T16:05:25.950Z,61.58
2018-06-30T16:07:55.577Z,62.21
2018-06-30T16:10:25.512Z,63.64
2018-06-30T16:12:54.458Z,63.52
2018-06-30T16:15:23.623Z,64.81
2018-06-30T16:17:52.644Z,64.77
2018-06-30T16:20:21.939Z,65.64
2018-06-30T16:22:51.394Z,66.54
2018-06-30T16:25:20.454Z,64.97
2018-06-30T16:27:49.609Z,66.32
2018-06-30T16:30:18.949Z,64.36
2018-06-30T16:32:48.142Z,63.76
2018-06-30T16:35:17.160Z,62.02
2018-06-30T16:37:48.304Z,61.59
2018-06-30T16:40:17.362Z,63.08
2018-06-30T16:42:46.392Z,62.36
2018-06-30T16:45:15.594Z,62.30
2018-06-30T16:47:44.684Z,60.01
2018-06-30T16:50:14.845Z,59.47
2018-06-30T16:52:44.293Z,59.47
2018-06-30T16:55:15.546Z,58.37
2018-06-30T16:57:44.790Z,57.98
2018-06-30T17:00:13.679Z,56.26
2018-06-30T17:02:42.760Z,57.14
2018-06-30T17:05:13.328Z,57.57
2018-06-30T17:07:42.362Z,58.29
2018-06-30T17:10:11.340Z,58.51
2018-06-30T17:12:40.494Z,59.33
2018-06-30T17:15:11.371Z,60.43
2018-06-30T17:17:40.843Z,60.83
2018-06-30T17:20:09.801Z,61.68
2018-06-30T17:22:38.936Z,61.00
2018-06-30T17:25:08.484Z,62.02
2018-06-30T17:27:41.013Z,61.40
2018-06-30T17:30:11.208Z,61.47
2018-06-30T17:32:40.103Z,61.67
2018-06-30T17:35:09.024Z,60.75
2018-06-30T17:37:38.194Z,62.02
2018-06-30T17:40:07.279Z,61.28
2018-06-30T17:42:36.404Z,60.56
2018-06-30T17:45:06.668Z,61.96
2018-06-30T17:47:35.846Z,59.67
2018-06-30T17:50:06.133Z,59.66
2018-06-30T17:52:35.678Z,58.83
2018-06-30T17:55:05.199Z,58.00
2018-06-30T17:57:34.139Z,58.42
2018-06-30T18:00:03.400Z,56.22
2018-06-30T18:02:32.320Z,55.21
2018-06-30T18:05:01.504Z,53.73
2018-06-30T18:07:30.966Z,53.70
2018-06-30T18:10:00.000Z,54.18
2018-06-30T18:12:30.244Z,57.75
2018-06-30T18:14:59.776Z,59.11
2018-06-30T18:17:28.916Z,60.56
2018-06-30T18:19:57.888Z,62.78
2018-06-30T18:22:27.153Z,63.01
2018-06-30T18:24:56.083Z,63.10
2018-06-30T18:27:25.302Z,64.44
2018-06-30T18:29:54.367Z,65.00
2018-06-30T18:32:23.351Z,64.90
2018-06-30T18:34:52.226Z,66.16
2018-06-30T18:37:21.754Z,66.81
2018-06-30T18:39:50.703Z,67.04
2018-06-30T18:42:19.760Z,67.88
2018-06-30T18:44:49.021Z,68.68
2018-06-30T18:47:18.041Z,69.47
2018-06-30T18:49:47.011Z,70.29
2018-06-30T18:52:16.241Z,69.91
2018-06-30T18:54:45.321Z,70.93
2018-06-30T18:57:14.648Z,71.31
2018-06-30T18:59:43.971Z,71.10
2018-06-30T19:02:12.894Z,71.96
2018-06-30T19:04:42.125Z,70.85
2018-06-30T19:07:11.140Z,71.27
2018-06-30T19:09:40.188Z,70.74
2018-06-30T19:12:09.336Z,70.54
2018-06-30T19:14:38.908Z,71.22
2018-06-30T19:17:08.190Z,70.65
2018-06-30T19:19:37.379Z,71.04
2018-06-30T19:22:07.034Z,70.87
2018-06-30T19:24:35.904Z,70.24
2018-06-30T19:27:06.002Z,70.04
2018-06-30T19:29:35.040Z,69.82
2018-06-30T19:32:04.150Z,69.62
2018-06-30T19:34:33.331Z,68.95
2018-06-30T19:37:02.275Z,69.09
2018-06-30T19:39:31.383Z,69.00
2018-06-30T19:42:00.490Z,69.87
2018-06-30T19:44:29.880Z,68.82
2018-06-30T19:47:04.551Z,69.22
2018-06-30T19:49:34.604Z,69.15
2018-06-30T19:52:04.782Z,69.93
2018-06-30T19:54:34.044Z,69.77
2018-06-30T19:57:08.490Z,69.69
2018-06-30T19:59:37.857Z,69.42
2018-06-30T20:02:07.255Z,69.77
2018-06-30T20:04:36.789Z,70.04
2018-06-30T20:07:06.369Z,68.67
2018-06-30T20:09:39.032Z,69.27
2018-06-30T20:12:08.108Z,69.49
2018-06-30T20:14:37.960Z,68.76
2018-06-30T20:17:10.469Z,69.00
2018-06-30T20:19:39.591Z,69.10
2018-06-30T20:22:14.695Z,68.37
2018-06-30T20:24:50.589Z,68.07
2018-06-30T20:27:21.605Z,68.19
2018-06-30T20:29:54.147Z,67.69
2018-06-30T20:32:25.404Z,67.17
2018-06-30T20:34:54.503Z,66.86
2018-06-30T20:37:24.742Z,66.15
2018-06-30T20:39:58.835Z,66.55
2018-06-30T20:42:28.318Z,66.63
2018-06-30T20:44:57.562Z,66.51
2018-06-30T20:47:26.853Z,65.77
2018-06-30T20:49:59.982Z,66.29
2018-06-30T20:52:29.547Z,65.27
2018-06-30T20:54:58.598Z,66.22
2018-06-30T20:57:29.088Z,66.39
2018-06-30T20:59:58.627Z,65.92
2018-06-30T21:02:28.885Z,66.35
2018-06-30T21:04:58.084Z,66.99
2018-06-30T21:07:27.553Z,66.38
2018-06-30T21:09:56.849Z,67.39
2018-06-30T21:12:25.871Z,67.27
2018-06-30T21:14:55.660Z,68.40
2018-06-30T21:17:27.051Z,67.76
2018-06-30T21:20:00.356Z,68.64
2018-06-30T21:22:29.923Z,69.04
2018-06-30T21:25:03.972Z,68.26
2018-06-30T21:27:33.729Z,69.08
2018-06-30T21:30:04.000Z,67.90
2018-06-30T21:32:33.459Z,68.62
2018-06-30T21:35:05.088Z,68.04
2018-06-30T21:37:35.070Z,68.56
2018-06-30T21:46:10.367Z,68.53
2018-06-30T21:48:42.855Z,68.53
2018-06-30T21:51:21.156Z,68.96
2018-06-30T21:53:59.197Z,69.08
2018-06-30T21:56:30.976Z,68.33
2018-06-30T21:59:04.749Z,68.75
2018-06-30T22:01:34.729Z,68.68
2018-06-30T22:04:14.071Z,68.15
2018-06-30T22:06:54.837Z,68.90
2018-06-30T22:09:24.895Z,69.12
2018-06-30T22:12:02.821Z,68.01
2018-06-30T22:14:32.829Z,68.18
2018-06-30T22:17:01.996Z,67.26
2018-06-30T22:19:31.216Z,66.92
2018-06-30T22:22:00.373Z,67.79
2018-06-30T22:24:29.571Z,67.44
2018-06-30T22:26:59.751Z,66.89
2018-06-30T22:29:28.898Z,67.69
2018-06-30T22:31:57.907Z,66.86
2018-06-30T22:34:26.946Z,66.69
2018-06-30T22:36:57.453Z,67.04
2018-06-30T22:39:37.533Z,66.98
2018-06-30T22:42:08.028Z,67.04
2018-06-30T22:44:36.996Z,67.43
2018-06-30T22:47:06.264Z,66.59
2018-06-30T22:49:40.172Z,65.76
2018-06-30T22:52:21.876Z,65.70
2018-06-30T22:54:52.741Z,65.82
2018-06-30T22:57:24.145Z,64.50
2018-06-30T22:59:56.697Z,65.05
2018-06-30T23:02:26.457Z,65.43
2018-06-30T23:04:56.023Z,65.98
2018-06-30T23:07:25.607Z,65.96
2018-06-30T23:09:58.265Z,65.78
2018-06-30T23:12:27.900Z,65.80
2018-06-30T23:14:57.998Z,65.58
2018-06-30T23:17:33.505Z,65.96
2018-06-30T23:20:02.698Z,65.41
2018-06-30T23:22:49.704Z,66.06
2018-06-30T23:25:19.737Z,66.06
2018-06-30T23:27:48.735Z,66.14
2018-06-30T23:30:18.130Z,65.50
2018-06-30T23:32:47.313Z,66.68
2018-06-30T23:35:16.563Z,65.86
2018-06-30T23:37:45.851Z,66.27
2018-06-30T23:40:14.812Z,65.88
2018-06-30T23:42:43.960Z,67.00
2018-06-30T23:45:13.161Z,67.32
2018-06-30T23:47:42.297Z,66.57
2018-06-30T23:50:11.311Z,66.88
2018-06-30T23:52:44.484Z,68.08
2018-06-30T23:55:13.566Z,68.50
2018-06-30T23:57:42.654Z,68.07
